Time;durP1;ratioP1;P1;durP2;ratioP2;P2;SDS_P1;SDS_P2;PMS_P1;PMS_P2;Temp;Humidity;BMP_temperature;BMP_pressure;BME280_temperature;BME280_humidity;BME280_pressure;Samples;Min_cycle;Max_cycle;Signal;HPM_P1;HPM_P2
2023/09/13 00:01:43;;;;;;;17.05;6.97;;;18.40;99.90;;;;;;5013184;28;20462;-89
2023/09/13 00:04:09;;;;;;;15.82;7.43;;;18.40;99.90;;;;;;5020341;28;20153;-91
2023/09/13 00:06:35;;;;;;;12.15;7.05;;;18.40;99.90;;;;;;4984813;28;20092;-93
2023/09/13 00:09:00;;;;;;;12.50;6.47;;;18.30;99.90;;;;;;5013302;28;20444;-90
2023/09/13 00:11:26;;;;;;;12.07;6.82;;;18.40;99.90;;;;;;5012170;28;20064;-88
2023/09/13 00:13:52;;;;;;;13.30;5.82;;;18.30;99.90;;;;;;5033658;28;20064;-89
2023/09/13 00:16:18;;;;;;;15.77;6.80;;;18.20;99.90;;;;;;5017617;28;20040;-88
2023/09/13 00:18:44;;;;;;;9.70;5.78;;;18.30;99.90;;;;;;5016418;28;20481;-91
2023/09/13 00:21:13;;;;;;;16.73;6.25;;;18.30;99.90;;;;;;5017246;28;20045;-94
2023/09/13 00:23:38;;;;;;;13.90;5.63;;;18.30;99.90;;;;;;5006759;28;20077;-91
2023/09/13 00:26:05;;;;;;;13.85;5.38;;;18.30;99.90;;;;;;5011439;28;20120;-90
2023/09/13 00:28:31;;;;;;;12.00;5.60;;;18.20;99.90;;;;;;5033376;28;20052;-91
2023/09/13 00:30:57;;;;;;;11.13;5.55;;;18.20;99.90;;;;;;5017070;28;20476;-90
2023/09/13 00:33:23;;;;;;;10.25;5.18;;;18.20;99.90;;;;;;4998368;28;20040;-88
2023/09/13 00:35:54;;;;;;;11.30;5.75;;;18.20;99.90;;;;;;4999456;28;20060;-90
2023/09/13 00:38:20;;;;;;;12.02;5.38;;;18.20;99.90;;;;;;5034277;28;20394;-90
2023/09/13 00:40:46;;;;;;;12.60;5.10;;;18.20;99.90;;;;;;4984495;28;20033;-91
2023/09/13 00:43:11;;;;;;;11.70;5.30;;;18.20;99.90;;;;;;5017135;28;20739;-92
2023/09/13 00:45:37;;;;;;;12.50;4.97;;;18.20;99.90;;;;;;5017444;28;20038;-94
2023/09/13 00:48:04;;;;;;;9.93;4.82;;;18.20;99.90;;;;;;4996924;28;20068;-91
2023/09/13 00:50:30;;;;;;;12.40;4.82;;;18.10;99.90;;;;;;5025483;28;20042;-88
2023/09/13 00:52:57;;;;;;;8.98;4.40;;;18.10;99.90;;;;;;5004520;28;20042;-87
2023/09/13 00:55:26;;;;;;;10.95;4.40;;;18.10;99.90;;;;;;5033616;28;20041;-85
2023/09/13 00:57:53;;;;;;;9.02;4.75;;;18.10;99.90;;;;;;5016074;28;20487;-91
2023/09/13 01:00:20;;;;;;;9.73;4.60;;;18.10;99.90;;;;;;5033797;28;20041;-92
2023/09/13 01:02:46;;;;;;;7.55;4.03;;;18.10;99.90;;;;;;5012957;28;20053;-91
2023/09/13 01:05:13;;;;;;;7.93;4.00;;;18.10;99.90;;;;;;4995925;28;20045;-89
2023/09/13 01:07:41;;;;;;;9.55;4.40;;;18.10;99.90;;;;;;5016139;28;20048;-92
2023/09/13 01:10:11;;;;;;;8.50;3.78;;;18.10;99.90;;;;;;5028362;28;20069;-88
2023/09/13 01:12:37;;;;;;;8.45;4.28;;;18.10;99.90;;;;;;4982946;28;20092;-92
2023/09/13 01:15:08;;;;;;;8.43;4.45;;;18.00;99.90;;;;;;5033361;28;20087;-91
2023/09/13 01:17:39;;;;;;;7.95;3.72;;;18.00;99.90;;;;;;5006418;28;20065;-92
2023/09/13 01:20:04;;;;;;;11.97;4.47;;;18.00;99.90;;;;;;5035323;28;20129;-88
2023/09/13 01:22:33;;;;;;;7.97;3.53;;;18.00;99.90;;;;;;5052056;28;20037;-89
2023/09/13 01:25:36;;;;;;;10.27;3.53;;;18.00;99.90;;;;;;5046511;28;20042;-89
2023/09/13 01:28:30;;;;;;;8.52;4.03;;;17.90;99.90;;;;;;5033186;28;20128;-92
2023/09/13 01:30:57;;;;;;;8.75;4.30;;;17.90;99.90;;;;;;5017102;28;20085;-93
2023/09/13 01:33:23;;;;;;;10.13;4.10;;;17.80;99.90;;;;;;5000483;28;20385;-92
2023/09/13 01:35:49;;;;;;;9.45;3.97;;;17.80;99.90;;;;;;5032327;28;20061;-88
2023/09/13 01:38:14;;;;;;;10.55;4.00;;;17.70;99.90;;;;;;5016095;28;20037;-89
2023/09/13 01:40:43;;;;;;;8.65;3.90;;;17.70;99.90;;;;;;4999071;28;20041;-87
2023/09/13 01:43:09;;;;;;;9.05;3.97;;;17.60;99.90;;;;;;5025789;28;20053;-90
2023/09/13 01:45:35;;;;;;;9.30;3.80;;;17.60;99.90;;;;;;5014804;28;20045;-90
2023/09/13 01:48:03;;;;;;;8.90;3.90;;;17.50;99.90;;;;;;5013218;28;20234;-89
2023/09/13 01:50:30;;;;;;;8.88;3.58;;;17.50;99.90;;;;;;5014705;28;20053;-89
2023/09/13 01:52:56;;;;;;;7.05;3.70;;;17.40;99.90;;;;;;5015913;28;20041;-90
2023/09/13 01:55:22;;;;;;;9.05;3.67;;;17.40;99.90;;;;;;5015730;28;20120;-92
2023/09/13 01:57:48;;;;;;;8.80;3.70;;;17.40;99.90;;;;;;5013834;28;20075;-90
2023/09/13 02:00:14;;;;;;;10.30;3.75;;;17.40;99.90;;;;;;4993042;28;20042;-89
2023/09/13 02:02:40;;;;;;;8.95;3.67;;;17.30;99.90;;;;;;5014485;28;20124;-88
2023/09/13 02:05:06;;;;;;;10.68;3.95;;;17.40;99.90;;;;;;5007507;28;20087;-88
2023/09/13 02:07:32;;;;;;;9.32;3.65;;;17.30;99.90;;;;;;5014610;28;20044;-92
2023/09/13 02:09:58;;;;;;;9.75;3.58;;;17.30;99.90;;;;;;4998462;28;20593;-90
2023/09/13 02:12:23;;;;;;;8.35;3.25;;;17.30;99.90;;;;;;5005641;28;20076;-90
2023/09/13 02:14:49;;;;;;;10.15;3.72;;;17.20;99.90;;;;;;5031208;28;20038;-90
2023/09/13 02:17:15;;;;;;;8.88;3.80;;;17.20;99.90;;;;;;5014622;28;20393;-91
2023/09/13 02:19:40;;;;;;;7.47;3.58;;;17.20;99.90;;;;;;5015604;28;20049;-87
2023/09/13 02:22:06;;;;;;;7.28;3.45;;;17.10;99.90;;;;;;5030059;28;20539;-88
2023/09/13 02:24:33;;;;;;;11.48;3.35;;;17.10;99.90;;;;;;5021644;28;20103;-87
2023/09/13 02:26:59;;;;;;;6.38;3.20;;;17.10;99.90;;;;;;5012813;28;20044;-91
2023/09/13 02:29:26;;;;;;;8.30;3.70;;;17.10;99.90;;;;;;5007427;28;20053;-90
2023/09/13 02:31:52;;;;;;;8.85;3.50;;;17.10;99.90;;;;;;4999584;28;20080;-90
2023/09/13 02:34:17;;;;;;;11.48;3.50;;;17.10;99.90;;;;;;5030437;28;20049;-88
2023/09/13 02:36:45;;;;;;;9.05;3.85;;;17.10;99.90;;;;;;5001266;28;20120;-90
2023/09/13 02:39:30;;;;;;;7.25;3.17;;;17.00;99.90;;;;;;5021706;28;20480;-89
2023/09/13 02:41:56;;;;;;;7.80;3.50;;;17.00;99.90;;;;;;5014265;28;20115;-89
2023/09/13 02:44:21;;;;;;;7.68;3.45;;;17.00;99.90;;;;;;4998902;28;20481;-92
2023/09/13 02:46:47;;;;;;;8.43;3.20;;;17.00;99.90;;;;;;4998516;28;20038;-91
2023/09/13 02:49:13;;;;;;;8.30;3.42;;;17.00;99.90;;;;;;5032089;28;20037;-87
2023/09/13 02:51:38;;;;;;;7.95;3.90;;;17.00;99.90;;;;;;5010771;28;20041;-90
2023/09/13 02:54:04;;;;;;;10.90;3.78;;;17.00;99.90;;;;;;4998969;28;20129;-91
2023/09/13 02:56:30;;;;;;;9.38;3.70;;;17.00;99.90;;;;;;4991805;28;20088;-91
2023/09/13 02:58:56;;;;;;;9.27;3.30;;;16.90;99.90;;;;;;4998574;28;20034;-88
2023/09/13 03:01:22;;;;;;;8.48;3.22;;;16.90;99.90;;;;;;4996822;28;20385;-91
2023/09/13 03:03:48;;;;;;;6.88;3.45;;;16.90;99.90;;;;;;5013091;28;20112;-88
2023/09/13 03:06:15;;;;;;;7.90;3.33;;;16.90;99.90;;;;;;5006167;28;20426;-88
2023/09/13 03:08:41;;;;;;;11.95;3.40;;;16.90;99.90;;;;;;4975320;28;20116;-89
2023/09/13 03:11:15;;;;;;;7.10;3.00;;;16.90;99.90;;;;;;5014192;28;20123;-91
2023/09/13 03:13:40;;;;;;;7.90;3.13;;;16.90;99.90;;;;;;5029400;28;20065;-88
2023/09/13 03:16:17;;;;;;;7.63;3.50;;;16.90;99.90;;;;;;5003042;28;20174;-90
2023/09/13 03:18:44;;;;;;;10.45;3.53;;;16.90;99.90;;;;;;5031238;28;20041;-91
2023/09/13 03:21:11;;;;;;;9.80;2.97;;;16.80;99.90;;;;;;5013968;28;20081;-88
2023/09/13 03:23:38;;;;;;;5.63;3.20;;;16.80;99.90;;;;;;5003418;28;20127;-89
2023/09/13 03:26:25;;;;;;;7.57;3.20;;;16.80;99.90;;;;;;4998223;28;20180;-91
2023/09/13 03:28:53;;;;;;;8.48;3.50;;;16.80;99.90;;;;;;5022326;28;20076;-89
2023/09/13 03:31:24;;;;;;;11.25;3.45;;;16.80;99.90;;;;;;5013378;28;20124;-89
2023/09/13 03:33:52;;;;;;;10.32;3.20;;;16.80;99.90;;;;;;5028282;28;20089;-89
2023/09/13 03:36:18;;;;;;;9.00;3.53;;;16.80;99.90;;;;;;5045469;28;20053;-90
2023/09/13 03:38:45;;;;;;;9.88;4.00;;;16.90;99.90;;;;;;5050455;28;20028;-90
2023/09/13 03:41:16;;;;;;;7.50;3.10;;;16.80;99.90;;;;;;4982806;28;20077;-90
2023/09/13 03:43:42;;;;;;;11.88;4.07;;;16.90;99.90;;;;;;5004510;28;20052;-90
2023/09/13 03:46:08;;;;;;;9.45;3.47;;;16.90;99.90;;;;;;5028020;28;20544;-88
2023/09/13 03:48:36;;;;;;;6.93;3.00;;;16.90;99.90;;;;;;4997757;28;20041;-90
2023/09/13 03:51:03;;;;;;;8.27;3.92;;;16.80;99.90;;;;;;5030403;28;20045;-90
2023/09/13 03:53:29;;;;;;;9.50;3.65;;;16.80;99.90;;;;;;5029763;28;20116;-87
2023/09/13 03:55:54;;;;;;;10.82;3.92;;;16.80;99.90;;;;;;5012145;28;20120;-89
2023/09/13 03:58:21;;;;;;;9.63;4.22;;;16.90;99.90;;;;;;5016082;28;20041;-93
2023/09/13 04:00:47;;;;;;;7.60;3.80;;;16.80;99.90;;;;;;5012884;28;20037;-89
2023/09/13 04:03:16;;;;;;;9.18;3.55;;;16.80;99.90;;;;;;5015007;28;20559;-90
2023/09/13 04:05:42;;;;;;;7.95;3.47;;;16.80;99.90;;;;;;5000877;28;20149;-88
2023/09/13 04:08:08;;;;;;;10.02;3.72;;;16.80;99.90;;;;;;5015362;28;20042;-86
2023/09/13 04:10:34;;;;;;;9.32;3.90;;;16.80;99.90;;;;;;5034931;28;20066;-88
2023/09/13 04:12:59;;;;;;;7.85;3.88;;;16.80;99.90;;;;;;5020443;28;20397;-89
2023/09/13 04:15:25;;;;;;;7.00;3.30;;;16.80;99.90;;;;;;5016153;28;20044;-89
2023/09/13 04:17:51;;;;;;;12.55;3.60;;;16.90;99.90;;;;;;5032974;28;20384;-89
2023/09/13 04:20:17;;;;;;;6.80;3.35;;;16.80;99.90;;;;;;5016141;28;20706;-87
2023/09/13 04:22:43;;;;;;;11.70;3.72;;;16.90;99.90;;;;;;5013373;28;20056;-85
2023/09/13 04:25:09;;;;;;;12.55;3.67;;;16.90;99.90;;;;;;5008518;28;20484;-86
2023/09/13 04:27:34;;;;;;;5.53;3.40;;;16.90;99.90;;;;;;5026913;28;20053;-87
2023/09/13 04:30:00;;;;;;;10.23;3.85;;;16.90;99.90;;;;;;5005662;28;20212;-88
2023/09/13 04:32:26;;;;;;;9.05;3.60;;;16.90;99.90;;;;;;5027882;28;20520;-86
2023/09/13 04:34:55;;;;;;;8.63;4.03;;;16.90;99.90;;;;;;5031201;28;20057;-86
2023/09/13 04:37:21;;;;;;;10.68;3.88;;;16.90;99.90;;;;;;5032545;28;20052;-90
2023/09/13 04:39:47;;;;;;;14.00;3.97;;;16.90;99.90;;;;;;5012670;28;20041;-85
2023/09/13 04:42:14;;;;;;;13.63;4.40;;;16.80;99.90;;;;;;5031557;28;20038;-91
2023/09/13 04:44:39;;;;;;;7.05;3.75;;;16.80;99.90;;;;;;5015852;28;20068;-87
2023/09/13 04:47:05;;;;;;;9.77;3.55;;;16.80;99.90;;;;;;5027538;28;20045;-89
2023/09/13 04:49:31;;;;;;;8.68;4.22;;;16.80;99.90;;;;;;5011925;28;20132;-87
2023/09/13 04:51:57;;;;;;;7.18;2.85;;;16.70;99.90;;;;;;4996331;28;20555;-88
2023/09/13 04:54:23;;;;;;;8.27;2.88;;;16.70;99.90;;;;;;5026707;28;20041;-88
2023/09/13 04:56:50;;;;;;;8.15;2.72;;;16.70;99.90;;;;;;4983058;28;20041;-88
2023/09/13 04:59:16;;;;;;;8.80;2.85;;;16.60;99.90;;;;;;5010415;28;20045;-87
2023/09/13 05:01:42;;;;;;;4.43;2.30;;;16.60;99.90;;;;;;5032585;28;20056;-90
2023/09/13 05:04:08;;;;;;;6.38;2.63;;;16.60;99.90;;;;;;4972274;28;20042;-88
2023/09/13 05:06:33;;;;;;;9.27;2.63;;;16.50;99.90;;;;;;5015596;28;20081;-89
2023/09/13 05:08:59;;;;;;;7.03;2.65;;;16.40;99.90;;;;;;5023889;28;20079;-89
2023/09/13 05:11:25;;;;;;;7.60;2.42;;;16.40;99.90;;;;;;5031983;28;20033;-86
2023/09/13 05:14:07;;;;;;;6.80;2.38;;;16.30;99.90;;;;;;5008961;28;20042;-88
2023/09/13 05:16:33;;;;;;;9.15;2.55;;;16.20;99.90;;;;;;5008344;28;20389;-88
2023/09/13 05:18:58;;;;;;;7.22;2.53;;;16.20;99.90;;;;;;5017130;28;20045;-86
2023/09/13 05:21:24;;;;;;;9.82;2.78;;;16.10;99.90;;;;;;5025405;28;20048;-87
2023/09/13 05:23:50;;;;;;;6.68;2.30;;;16.10;99.90;;;;;;5021588;28;20159;-85
2023/09/13 05:26:15;;;;;;;5.28;2.40;;;16.00;99.90;;;;;;5024595;28;20041;-88
2023/09/13 05:28:42;;;;;;;8.95;2.67;;;15.90;99.90;;;;;;5014239;28;20033;-89
2023/09/13 05:31:07;;;;;;;6.82;2.22;;;15.90;99.90;;;;;;5021409;28;20042;-86
2023/09/13 05:33:34;;;;;;;7.63;2.40;;;15.90;99.90;;;;;;4997609;28;20033;-87
2023/09/13 05:36:00;;;;;;;7.90;2.17;;;15.80;99.90;;;;;;5011454;28;22027;-84
2023/09/13 05:38:26;;;;;;;7.80;2.53;;;15.80;99.90;;;;;;5015434;28;20053;-85
2023/09/13 05:40:51;;;;;;;8.95;2.67;;;15.70;99.90;;;;;;4990454;28;20033;-89
2023/09/13 05:43:17;;;;;;;9.02;2.35;;;15.60;99.90;;;;;;4995953;28;20044;-88
2023/09/13 05:45:43;;;;;;;5.43;2.45;;;15.60;99.90;;;;;;4998087;28;20539;-85
2023/09/13 05:48:08;;;;;;;5.50;1.90;;;15.50;99.90;;;;;;4998516;28;20146;-83
2023/09/13 05:50:34;;;;;;;6.65;2.40;;;15.40;99.90;;;;;;5036362;28;20061;-80
2023/09/13 05:53:00;;;;;;;7.43;2.70;;;15.40;99.90;;;;;;5029695;28;20037;-85
2023/09/13 05:55:25;;;;;;;10.13;2.50;;;15.30;99.90;;;;;;5018561;28;20037;-84
2023/09/13 05:57:51;;;;;;;8.80;2.60;;;15.20;99.90;;;;;;4996464;28;20038;-85
2023/09/13 06:00:17;;;;;;;8.15;3.17;;;15.20;99.90;;;;;;5017008;28;20072;-83
2023/09/13 06:02:43;;;;;;;9.25;2.78;;;15.20;99.90;;;;;;5017651;28;20049;-84
2023/09/13 06:05:12;;;;;;;6.20;2.83;;;15.10;99.90;;;;;;4995135;28;20046;-91
2023/09/13 06:07:38;;;;;;;8.55;2.70;;;15.00;99.90;;;;;;4998947;28;20068;-86
2023/09/13 06:10:04;;;;;;;10.70;2.83;;;15.00;99.90;;;;;;5004253;28;20049;-85
2023/09/13 06:12:31;;;;;;;10.57;3.92;;;14.90;99.90;;;;;;4994694;28;20101;-90
2023/09/13 06:14:57;;;;;;;8.80;2.90;;;14.90;99.90;;;;;;4995767;28;20500;-85
2023/09/13 06:17:24;;;;;;;7.43;2.70;;;14.80;99.90;;;;;;4997408;28;20041;-86
2023/09/13 06:19:52;;;;;;;6.25;2.65;;;14.80;99.90;;;;;;5011484;28;20049;-88
2023/09/13 06:22:19;;;;;;;7.97;2.88;;;14.70;99.90;;;;;;5008319;28;20041;-89
2023/09/13 06:24:45;;;;;;;8.43;3.20;;;14.70;99.90;;;;;;5029434;28;20049;-85
2023/09/13 06:27:10;;;;;;;8.75;3.30;;;14.60;99.90;;;;;;5007109;28;20053;-90
2023/09/13 06:29:36;;;;;;;9.52;3.10;;;14.50;99.90;;;;;;5011220;28;20111;-90
2023/09/13 06:32:03;;;;;;;9.60;3.33;;;14.40;99.90;;;;;;4998983;28;20041;-86
2023/09/13 06:34:28;;;;;;;8.88;3.47;;;14.40;99.90;;;;;;5030500;28;20041;-83
2023/09/13 06:36:55;;;;;;;10.02;3.03;;;14.30;99.90;;;;;;5012635;28;20046;-88
2023/09/13 06:39:21;;;;;;;6.53;2.85;;;14.30;99.90;;;;;;4997476;28;20393;-89
2023/09/13 06:41:47;;;;;;;9.10;3.00;;;14.30;99.90;;;;;;5030512;28;20045;-85
2023/09/13 06:44:13;;;;;;;6.72;2.25;;;14.30;99.90;;;;;;4996024;28;20043;-87
2023/09/13 06:46:41;;;;;;;4.97;2.40;;;14.20;99.90;;;;;;5027976;28;20069;-90
2023/09/13 06:49:07;;;;;;;8.90;3.13;;;14.20;99.90;;;;;;4998858;28;20055;-88
2023/09/13 06:51:35;;;;;;;8.57;2.83;;;14.20;99.90;;;;;;5027469;28;20545;-89
2023/09/13 06:54:01;;;;;;;7.72;3.33;;;14.20;99.90;;;;;;4997594;28;20137;-87
2023/09/13 06:56:27;;;;;;;7.90;2.78;;;14.20;99.90;;;;;;5016391;28;20046;-86
2023/09/13 06:58:53;;;;;;;7.15;2.95;;;14.20;99.90;;;;;;5006233;28;20841;-88
2023/09/13 07:01:19;;;;;;;10.40;3.13;;;14.20;99.90;;;;;;5012157;28;20079;-85
2023/09/13 07:03:45;;;;;;;9.85;2.85;;;14.10;99.90;;;;;;5008207;28;20041;-90
2023/09/13 07:06:11;;;;;;;8.25;3.20;;;14.20;99.90;;;;;;5009591;28;20463;-91
2023/09/13 07:08:37;;;;;;;12.10;3.17;;;14.20;99.90;;;;;;5006101;28;20529;-85
2023/09/13 07:11:03;;;;;;;9.40;3.28;;;14.20;99.90;;;;;;5006861;28;20124;-83
2023/09/13 07:13:29;;;;;;;9.40;3.38;;;14.20;99.90;;;;;;4998326;28;20136;-89
2023/09/13 07:15:55;;;;;;;9.32;3.30;;;14.30;99.90;;;;;;5013893;28;20486;-86
2023/09/13 07:18:20;;;;;;;13.20;3.30;;;14.30;99.90;;;;;;5009496;28;20049;-85
2023/09/13 07:20:46;;;;;;;8.50;3.60;;;14.30;99.90;;;;;;5028327;28;20123;-84
2023/09/13 07:23:12;;;;;;;8.50;3.13;;;14.30;99.90;;;;;;5026346;28;20072;-86
2023/09/13 07:25:38;;;;;;;6.30;3.38;;;14.30;99.90;;;;;;4995273;28;20505;-87
2023/09/13 07:28:04;;;;;;;7.75;3.17;;;14.30;99.90;;;;;;4996170;28;20121;-84
2023/09/13 07:30:30;;;;;;;8.68;3.35;;;14.30;99.90;;;;;;5013281;28;20041;-85
2023/09/13 07:32:55;;;;;;;8.82;3.50;;;14.40;99.90;;;;;;5029422;28;20038;-83
2023/09/13 07:35:22;;;;;;;9.45;3.35;;;14.30;99.90;;;;;;5017946;28;20049;-85
2023/09/13 07:37:48;;;;;;;10.88;3.50;;;14.40;99.90;;;;;;5029109;28;20449;-84
2023/09/13 07:40:13;;;;;;;10.90;3.97;;;14.40;99.90;;;;;;5018071;28;20046;-84
2023/09/13 07:42:39;;;;;;;10.30;3.60;;;14.40;99.90;;;;;;5006428;28;20045;-84
2023/09/13 07:45:06;;;;;;;10.23;3.97;;;14.40;99.90;;;;;;5016754;28;20839;-87
2023/09/13 07:47:32;;;;;;;12.65;4.45;;;14.40;99.90;;;;;;5011016;28;20043;-85
2023/09/13 07:49:59;;;;;;;12.68;4.13;;;14.40;99.90;;;;;;5011311;28;20069;-86
2023/09/13 07:52:25;;;;;;;10.88;3.78;;;14.50;99.90;;;;;;5016604;28;20103;-85
2023/09/13 07:54:51;;;;;;;14.73;4.13;;;14.50;99.90;;;;;;5014405;28;20440;-87
2023/09/13 07:57:17;;;;;;;12.05;4.20;;;14.50;99.90;;;;;;5017550;28;20038;-90
2023/09/13 07:59:43;;;;;;;12.23;3.80;;;14.60;99.90;;;;;;5014446;28;20161;-85
2023/09/13 08:02:09;;;;;;;11.98;4.00;;;14.60;99.90;;;;;;4999187;28;20485;-89
2023/09/13 08:04:35;;;;;;;14.70;3.88;;;14.60;99.90;;;;;;5035311;28;20389;-86
2023/09/13 08:07:01;;;;;;;12.48;3.90;;;14.60;99.90;;;;;;5040622;28;20611;-86
2023/09/13 08:09:27;;;;;;;13.57;3.97;;;14.70;99.90;;;;;;5005954;28;20045;-87
2023/09/13 08:11:52;;;;;;;12.27;4.38;;;14.70;99.90;;;;;;5029943;28;20076;-86
2023/09/13 08:14:19;;;;;;;13.90;4.68;;;14.70;99.90;;;;;;5015972;28;20084;-88
2023/09/13 08:16:45;;;;;;;11.75;4.68;;;14.70;99.90;;;;;;5015098;28;20045;-87
2023/09/13 08:19:11;;;;;;;12.50;4.15;;;14.80;99.90;;;;;;5014560;28;20049;-86
2023/09/13 08:21:37;;;;;;;13.98;4.50;;;14.80;99.90;;;;;;5006194;28;20044;-87
2023/09/13 08:24:04;;;;;;;11.57;4.22;;;14.80;99.90;;;;;;4997248;28;20033;-87
2023/09/13 08:26:30;;;;;;;12.95;3.85;;;14.90;99.90;;;;;;5016679;28;20041;-86
2023/09/13 08:28:57;;;;;;;12.63;4.07;;;14.90;99.90;;;;;;5005445;28;20048;-88
2023/09/13 08:31:25;;;;;;;9.13;3.38;;;14.90;99.90;;;;;;4996232;28;20044;-90
2023/09/13 08:33:54;;;;;;;6.35;2.92;;;15.00;99.90;;;;;;5016823;28;20040;-87
2023/09/13 08:36:20;;;;;;;10.93;3.33;;;15.00;99.90;;;;;;5032925;28;20551;-85
2023/09/13 08:38:46;;;;;;;10.52;3.88;;;15.10;99.90;;;;;;5033091;28;20045;-87
2023/09/13 08:41:15;;;;;;;10.10;3.47;;;15.00;99.90;;;;;;5016596;28;20041;-87
2023/09/13 08:43:42;;;;;;;8.40;3.15;;;15.10;99.90;;;;;;5031929;28;20053;-88
2023/09/13 08:46:11;;;;;;;11.68;3.45;;;15.10;99.90;;;;;;5017101;28;20464;-88
2023/09/13 08:48:38;;;;;;;6.55;3.08;;;15.00;99.90;;;;;;5016198;28;20041;-86
2023/09/13 08:51:04;;;;;;;11.00;3.00;;;15.10;99.90;;;;;;5015944;28;20038;-86
2023/09/13 08:53:32;;;;;;;9.57;2.97;;;15.10;99.90;;;;;;4999450;28;20481;-87
2023/09/13 08:55:59;;;;;;;10.98;3.63;;;15.20;99.90;;;;;;5015958;28;20042;-86
2023/09/13 08:58:26;;;;;;;8.18;3.60;;;15.30;99.90;;;;;;5016599;28;20467;-87
2023/09/13 09:00:56;;;;;;;9.57;3.83;;;15.30;99.90;;;;;;5032760;28;20124;-87
2023/09/13 09:03:25;;;;;;;8.07;3.85;;;15.40;99.90;;;;;;5016429;28;20408;-86
2023/09/13 09:05:52;;;;;;;10.65;3.90;;;15.40;99.90;;;;;;5016178;28;20080;-87
2023/09/13 09:08:19;;;;;;;6.93;3.08;;;15.40;99.90;;;;;;5016616;28;20045;-85
2023/09/13 09:10:46;;;;;;;8.57;3.35;;;15.50;99.90;;;;;;5016222;28;20034;-87
2023/09/13 09:13:19;;;;;;;12.02;3.58;;;15.50;99.90;;;;;;5017129;28;20053;-88
2023/09/13 09:15:46;;;;;;;9.60;3.80;;;15.50;99.90;;;;;;5016391;28;20096;-88
2023/09/13 09:18:12;;;;;;;8.27;3.50;;;15.60;99.90;;;;;;5016047;28;20083;-87
2023/09/13 09:20:39;;;;;;;9.88;3.17;;;15.70;99.90;;;;;;5032462;28;20033;-86
2023/09/13 09:23:07;;;;;;;7.28;2.88;;;15.70;99.90;;;;;;4999674;28;20090;-87
2023/09/13 09:25:33;;;;;;;5.95;2.80;;;15.80;99.90;;;;;;5032663;28;20110;-86
2023/09/13 09:28:02;;;;;;;7.85;2.90;;;15.70;99.90;;;;;;5016024;28;20540;-89
2023/09/13 09:30:32;;;;;;;9.95;3.03;;;15.80;99.90;;;;;;4996464;28;20077;-83
2023/09/13 09:33:04;;;;;;;7.45;3.50;;;15.80;99.90;;;;;;5015759;28;20045;-89
2023/09/13 09:35:31;;;;;;;6.65;3.17;;;15.90;99.90;;;;;;5018932;28;20563;-85
2023/09/13 09:37:56;;;;;;;8.68;3.00;;;16.10;99.90;;;;;;5015133;28;20049;-87
2023/09/13 09:40:22;;;;;;;7.70;2.55;;;16.10;99.90;;;;;;5014630;28;20045;-87
2023/09/13 09:42:56;;;;;;;8.52;2.72;;;16.10;99.90;;;;;;5014629;28;20766;-88
2023/09/13 09:45:23;;;;;;;9.60;2.83;;;16.10;99.90;;;;;;5015408;28;20042;-86
2023/09/13 09:47:50;;;;;;;8.60;2.90;;;16.30;99.90;;;;;;5015790;28;20096;-88
2023/09/13 09:50:17;;;;;;;6.90;2.50;;;16.30;99.90;;;;;;5015214;28;20069;-86
2023/09/13 09:52:48;;;;;;;7.95;2.45;;;16.40;99.90;;;;;;5014924;28;20044;-84
2023/09/13 09:55:15;;;;;;;7.65;2.45;;;16.50;99.90;;;;;;5015967;28;20056;-85
2023/09/13 09:57:49;;;;;;;9.75;3.13;;;16.70;99.90;;;;;;5014989;28;20460;-85
2023/09/13 10:00:16;;;;;;;8.02;3.00;;;16.90;99.90;;;;;;5014987;28;20456;-83
2023/09/13 10:02:44;;;;;;;10.70;3.17;;;17.00;99.90;;;;;;5015165;28;20045;-84
2023/09/13 10:05:10;;;;;;;9.07;3.20;;;17.20;99.90;;;;;;5031421;28;20497;-85
2023/09/13 10:07:42;;;;;;;9.73;3.17;;;17.20;99.90;;;;;;5011370;28;20042;-87
2023/09/13 10:10:11;;;;;;;8.23;2.53;;;17.20;99.90;;;;;;5025682;28;20099;-88
2023/09/13 10:12:47;;;;;;;7.82;3.25;;;17.10;99.90;;;;;;4998769;28;20088;-86
2023/09/13 10:15:16;;;;;;;7.47;2.88;;;16.90;99.90;;;;;;5015276;28;20124;-85
2023/09/13 10:17:43;;;;;;;8.35;2.90;;;16.80;99.90;;;;;;5014616;28;20489;-88
2023/09/13 10:20:11;;;;;;;8.15;3.13;;;16.40;99.90;;;;;;4998377;28;20072;-87
2023/09/13 10:22:39;;;;;;;7.57;3.17;;;16.10;99.90;;;;;;5038107;28;20068;-83
2023/09/13 10:25:11;;;;;;;12.38;3.20;;;15.90;99.90;;;;;;5017976;28;20049;-83
2023/09/13 10:27:39;;;;;;;7.00;3.10;;;15.70;99.90;;;;;;5014834;28;20401;-86
2023/09/13 10:30:07;;;;;;;5.38;2.90;;;15.50;99.90;;;;;;5031080;28;20069;-85
2023/09/13 10:32:42;;;;;;;6.88;2.95;;;15.30;99.90;;;;;;4998151;28;20065;-90
2023/09/13 10:35:11;;;;;;;4.72;2.67;;;15.20;99.90;;;;;;4995740;28;20389;-88
2023/09/13 10:38:03;;;;;;;7.75;3.17;;;15.10;99.90;;;;;;4979912;28;20050;-87
2023/09/13 10:40:41;;;;;;;5.30;2.90;;;15.10;99.90;;;;;;5025144;28;20092;-88
2023/09/13 10:43:08;;;;;;;8.20;3.42;;;15.20;99.90;;;;;;5033237;28;20045;-88
2023/09/13 10:45:36;;;;;;;7.78;3.25;;;15.20;99.90;;;;;;5031188;28;20041;-88
2023/09/13 10:48:04;;;;;;;5.95;2.97;;;15.30;99.90;;;;;;5014595;28;20127;-90
2023/09/13 10:50:31;;;;;;;11.60;3.03;;;15.40;99.90;;;;;;4998246;28;20046;-88
2023/09/13 10:52:59;;;;;;;11.35;3.50;;;15.50;99.90;;;;;;5015069;28;20049;-90
2023/09/13 10:55:26;;;;;;;10.77;3.00;;;15.60;99.90;;;;;;5013890;28;20044;-89
2023/09/13 10:57:53;;;;;;;10.18;3.38;;;15.70;99.90;;;;;;5031277;28;20038;-87
2023/09/13 11:00:21;;;;;;;11.70;3.00;;;15.80;99.90;;;;;;5014672;28;20128;-88
2023/09/13 11:02:47;;;;;;;9.95;3.60;;;15.90;99.90;;;;;;5014179;28;20040;-87
2023/09/13 11:05:14;;;;;;;11.00;3.40;;;16.10;99.90;;;;;;5014540;28;20509;-87
2023/09/13 11:07:49;;;;;;;9.25;3.30;;;16.20;99.90;;;;;;5034197;28;20487;-91
2023/09/13 11:10:17;;;;;;;10.00;2.92;;;16.30;99.90;;;;;;5018391;28;20124;-88
2023/09/13 11:12:48;;;;;;;8.80;2.97;;;16.30;99.90;;;;;;5018548;28;20580;-89
2023/09/13 11:15:22;;;;;;;11.43;3.78;;;16.40;99.90;;;;;;5011268;28;20038;-89
2023/09/13 11:17:49;;;;;;;8.88;3.33;;;16.50;99.90;;;;;;5016021;28;20048;-89
2023/09/13 11:20:28;;;;;;;8.65;3.10;;;16.60;99.90;;;;;;5033902;28;20509;-87
2023/09/13 11:23:14;;;;;;;8.52;2.85;;;16.70;99.90;;;;;;5018111;28;20045;-90
2023/09/13 11:25:50;;;;;;;11.02;3.40;;;16.80;99.90;;;;;;5018553;28;20055;-84
2023/09/13 11:28:46;;;;;;;8.73;3.33;;;16.90;99.90;;;;;;5017206;28;20048;-85
2023/09/13 11:31:17;;;;;;;5.43;2.80;;;17.10;99.90;;;;;;4995783;28;20053;-87
2023/09/13 11:33:51;;;;;;;5.35;2.60;;;17.40;99.90;;;;;;5018301;28;20045;-88
2023/09/13 11:36:18;;;;;;;4.18;2.45;;;17.60;99.90;;;;;;5017289;28;20552;-85
2023/09/13 11:38:44;;;;;;;5.22;1.83;;;17.60;99.90;;;;;;5017588;28;20041;-84
2023/09/13 11:41:18;;;;;;;4.47;1.80;;;17.60;99.90;;;;;;5001154;28;20046;-83
2023/09/13 11:43:44;;;;;;;3.92;1.83;;;17.70;99.90;;;;;;5033724;28;20037;-87
2023/09/13 11:46:11;;;;;;;7.05;2.22;;;17.80;99.90;;;;;;5000935;28;20080;-84
2023/09/13 11:48:40;;;;;;;2.88;1.88;;;17.80;99.90;;;;;;5017629;28;20041;-87
2023/09/13 11:51:11;;;;;;;6.43;2.33;;;17.90;99.90;;;;;;5001807;28;20453;-87
2023/09/13 11:53:37;;;;;;;4.40;2.30;;;18.00;99.90;;;;;;5033605;28;20117;-85
2023/09/13 11:56:03;;;;;;;7.28;2.55;;;18.00;99.90;;;;;;5001508;28;20120;-91
2023/09/13 11:58:33;;;;;;;4.50;2.20;;;18.10;99.90;;;;;;4998196;28;20034;-83
2023/09/13 12:01:00;;;;;;;6.38;2.65;;;18.10;99.90;;;;;;5029393;28;20050;-87
2023/09/13 12:03:28;;;;;;;4.88;2.65;;;18.10;99.90;;;;;;5033863;28;20045;-87
2023/09/13 12:05:55;;;;;;;7.60;2.42;;;18.20;99.90;;;;;;5000907;28;20052;-86
2023/09/13 12:08:27;;;;;;;6.03;2.03;;;18.30;99.90;;;;;;5017063;28;20099;-86
2023/09/13 12:10:57;;;;;;;6.43;2.80;;;18.20;99.90;;;;;;5016627;28;20044;-85
2023/09/13 12:13:44;;;;;;;4.55;2.45;;;18.20;99.90;;;;;;5016409;28;20041;-85
2023/09/13 12:16:10;;;;;;;5.30;2.30;;;18.10;99.90;;;;;;5032920;28;20037;-87
2023/09/13 12:18:38;;;;;;;5.45;2.50;;;18.00;99.90;;;;;;4997946;28;20046;-90
2023/09/13 12:21:06;;;;;;;5.60;2.10;;;18.00;99.90;;;;;;5016429;28;20073;-86
2023/09/13 12:23:42;;;;;;;6.03;2.30;;;18.00;99.90;;;;;;5016688;28;20076;-88
2023/09/13 12:26:10;;;;;;;5.60;2.33;;;17.90;99.90;;;;;;5033385;28;20037;-83
2023/09/13 12:28:38;;;;;;;6.82;2.25;;;17.90;99.90;;;;;;5016610;28;20045;-87
2023/09/13 12:31:09;;;;;;;6.65;2.22;;;17.90;99.90;;;;;;4997672;28;20401;-88
2023/09/13 12:33:40;;;;;;;6.45;2.05;;;17.80;99.90;;;;;;5016873;28;20049;-89
2023/09/13 12:36:06;;;;;;;7.60;2.03;;;17.90;99.90;;;;;;5033127;28;20096;-86
2023/09/13 12:38:53;;;;;;;5.03;1.75;;;17.90;99.90;;;;;;5002334;28;20046;-83
2023/09/13 12:41:28;;;;;;;5.10;1.80;;;17.90;99.90;;;;;;5015371;28;20064;-87
2023/09/13 12:43:58;;;;;;;3.40;1.63;;;17.90;99.90;;;;;;5016490;28;20627;-84
2023/09/13 12:46:27;;;;;;;4.72;1.98;;;17.90;99.90;;;;;;5020574;28;20046;-85